sensor_id;sensor_type;location;lat;lon;timestamp;pressure;altitude;pressure_sealevel;temperature;humidity
16331;BME280;8275;48.206;16.340;2023-03-18T00:01:30;99165.25;;;11.18;25.01
16331;BME280;8275;48.206;16.340;2023-03-18T00:03:59;99162.19;;;11.14;25.25
16331;BME280;8275;48.206;16.340;2023-03-18T00:06:29;99166.31;;;11.12;24.92
16331;BME280;8275;48.206;16.340;2023-03-18T00:08:58;99173.16;;;11.09;24.98
16331;BME280;8275;48.206;16.340;2023-03-18T00:11:26;99169.81;;;11.07;25.28
16331;BME280;8275;48.206;16.340;2023-03-18T00:13:55;99168.69;;;11.03;25.43
16331;BME280;8275;48.206;16.340;2023-03-18T00:16:23;99168.97;;;11.02;25.41
16331;BME280;8275;48.206;16.340;2023-03-18T00:18:53;99157.44;;;11.00;25.18
16331;BME280;8275;48.206;16.340;2023-03-18T00:21:21;99152.19;;;10.98;25.65
16331;BME280;8275;48.206;16.340;2023-03-18T00:23:52;99163.44;;;10.97;25.43
16331;BME280;8275;48.206;16.340;2023-03-18T00:26:22;99160.41;;;10.93;25.79
16331;BME280;8275;48.206;16.340;2023-03-18T00:28:51;99166.69;;;10.94;25.88
16331;BME280;8275;48.206;16.340;2023-03-18T00:31:20;99159.56;;;10.93;25.36
16331;BME280;8275;48.206;16.340;2023-03-18T00:33:49;99165.28;;;10.91;25.84
16331;BME280;8275;48.206;16.340;2023-03-18T00:36:18;99169.13;;;10.90;25.69
16331;BME280;8275;48.206;16.340;2023-03-18T00:38:54;99150.47;;;10.87;25.86
16331;BME280;8275;48.206;16.340;2023-03-18T00:41:25;99159.78;;;10.86;25.94
16331;BME280;8275;48.206;16.340;2023-03-18T00:43:54;99160.03;;;10.85;25.84
16331;BME280;8275;48.206;16.340;2023-03-18T00:46:26;99157.56;;;10.83;25.69
16331;BME280;8275;48.206;16.340;2023-03-18T00:48:57;99154.25;;;10.81;25.81
16331;BME280;8275;48.206;16.340;2023-03-18T00:51:29;99152.59;;;10.80;25.92
16331;BME280;8275;48.206;16.340;2023-03-18T00:54:03;99144.66;;;10.79;25.71
16331;BME280;8275;48.206;16.340;2023-03-18T00:56:35;99159.41;;;10.78;26.19
16331;BME280;8275;48.206;16.340;2023-03-18T00:59:04;99153.13;;;10.77;26.01
16331;BME280;8275;48.206;16.340;2023-03-18T01:01:33;99158.84;;;10.76;25.76
16331;BME280;8275;48.206;16.340;2023-03-18T01:04:02;99149.81;;;10.75;26.11
16331;BME280;8275;48.206;16.340;2023-03-18T01:06:34;99143.53;;;10.75;25.87
16331;BME280;8275;48.206;16.340;2023-03-18T01:09:06;99142.69;;;10.74;26.23
16331;BME280;8275;48.206;16.340;2023-03-18T01:11:37;99144.59;;;10.74;26.27
16331;BME280;8275;48.206;16.340;2023-03-18T01:14:06;99139.13;;;10.74;26.24
16331;BME280;8275;48.206;16.340;2023-03-18T01:16:35;99147.59;;;10.72;26.12
16331;BME280;8275;48.206;16.340;2023-03-18T01:19:03;99139.38;;;10.72;26.05
16331;BME280;8275;48.206;16.340;2023-03-18T01:21:32;99131.41;;;10.71;26.37
16331;BME280;8275;48.206;16.340;2023-03-18T01:24:01;99128.38;;;10.67;25.93
16331;BME280;8275;48.206;16.340;2023-03-18T01:26:31;99129.44;;;10.66;26.00
16331;BME280;8275;48.206;16.340;2023-03-18T01:29:00;99129.72;;;10.65;25.95
16331;BME280;8275;48.206;16.340;2023-03-18T01:31:28;99134.63;;;10.63;26.18
16331;BME280;8275;48.206;16.340;2023-03-18T01:33:57;99137.88;;;10.59;26.09
16331;BME280;8275;48.206;16.340;2023-03-18T01:36:26;99129.09;;;10.57;26.44
16331;BME280;8275;48.206;16.340;2023-03-18T01:38:54;99132.94;;;10.56;26.34
16331;BME280;8275;48.206;16.340;2023-03-18T01:41:24;99131.56;;;10.54;26.16
16331;BME280;8275;48.206;16.340;2023-03-18T01:43:54;99128.25;;;10.52;26.27
16331;BME280;8275;48.206;16.340;2023-03-18T01:46:38;99113.94;;;10.45;26.17
16331;BME280;8275;48.206;16.340;2023-03-18T01:49:11;99124.34;;;10.48;26.37
16331;BME280;8275;48.206;16.340;2023-03-18T01:51:45;99121.06;;;10.46;26.51
16331;BME280;8275;48.206;16.340;2023-03-18T01:54:15;99119.16;;;10.46;26.40
16331;BME280;8275;48.206;16.340;2023-03-18T01:56:47;99134.19;;;10.44;26.39
16331;BME280;8275;48.206;16.340;2023-03-18T01:59:20;99128.69;;;10.44;26.43
16331;BME280;8275;48.206;16.340;2023-03-18T02:01:54;99131.72;;;10.42;26.63
16331;BME280;8275;48.206;16.340;2023-03-18T02:04:29;99139.09;;;10.42;26.64
16331;BME280;8275;48.206;16.340;2023-03-18T02:06:59;99130.88;;;10.42;26.44
16331;BME280;8275;48.206;16.340;2023-03-18T02:09:28;99131.16;;;10.40;26.41
16331;BME280;8275;48.206;16.340;2023-03-18T02:11:57;99147.56;;;10.40;26.67
16331;BME280;8275;48.206;16.340;2023-03-18T02:14:29;99134.13;;;10.39;26.68
16331;BME280;8275;48.206;16.340;2023-03-18T02:17:02;99147.81;;;10.39;26.58
16331;BME280;8275;48.206;16.340;2023-03-18T02:19:57;99143.69;;;10.36;26.49
16331;BME280;8275;48.206;16.340;2023-03-18T02:22:31;99156.28;;;10.37;26.75
16331;BME280;8275;48.206;16.340;2023-03-18T02:25:19;99152.16;;;10.35;26.59
16331;BME280;8275;48.206;16.340;2023-03-18T02:27:54;99156.28;;;10.37;26.68
16331;BME280;8275;48.206;16.340;2023-03-18T02:30:30;99148.34;;;10.36;26.59
16331;BME280;8275;48.206;16.340;2023-03-18T02:33:00;99154.13;;;10.39;26.46
16331;BME280;8275;48.206;16.340;2023-03-18T02:35:30;99154.97;;;10.40;26.91
16331;BME280;8275;48.206;16.340;2023-03-18T02:37:59;99158.53;;;10.40;26.70
16331;BME280;8275;48.206;16.340;2023-03-18T02:40:30;99151.13;;;10.41;26.77
16331;BME280;8275;48.206;16.340;2023-03-18T02:43:18;99151.13;;;10.41;26.74
16331;BME280;8275;48.206;16.340;2023-03-18T02:46:20;99149.47;;;10.40;27.08
16331;BME280;8275;48.206;16.340;2023-03-18T02:48:54;99151.13;;;10.41;26.58
16331;BME280;8275;48.206;16.340;2023-03-18T02:51:23;99147.56;;;10.40;27.07
16331;BME280;8275;48.206;16.340;2023-03-18T02:53:54;99161.28;;;10.40;27.09
16331;BME280;8275;48.206;16.340;2023-03-18T02:56:24;99164.00;;;10.40;26.96
16331;BME280;8275;48.206;16.340;2023-03-18T02:58:54;99163.41;;;10.38;26.80
16331;BME280;8275;48.206;16.340;2023-03-18T03:01:24;99159.88;;;10.38;27.11
16331;BME280;8275;48.206;16.340;2023-03-18T03:03:52;99172.72;;;10.37;27.08
16331;BME280;8275;48.206;16.340;2023-03-18T03:06:21;99174.63;;;10.37;26.83
16331;BME280;8275;48.206;16.340;2023-03-18T03:08:49;99176.81;;;10.35;27.18
16331;BME280;8275;48.206;16.340;2023-03-18T03:11:20;99181.44;;;10.34;27.07
16331;BME280;8275;48.206;16.340;2023-03-18T03:13:49;99178.97;;;10.33;26.87
16331;BME280;8275;48.206;16.340;2023-03-18T03:16:20;99191.00;;;10.32;27.08
16331;BME280;8275;48.206;16.340;2023-03-18T03:18:49;99188.53;;;10.30;26.92
16331;BME280;8275;48.206;16.340;2023-03-18T03:21:18;99198.91;;;10.28;27.24
16331;BME280;8275;48.206;16.340;2023-03-18T03:23:47;99196.66;;;10.25;27.36
16331;BME280;8275;48.206;16.340;2023-03-18T03:26:16;99199.69;;;10.24;27.35
16331;BME280;8275;48.206;16.340;2023-03-18T03:28:45;99209.78;;;10.23;27.17
16331;BME280;8275;48.206;16.340;2023-03-18T03:31:14;99200.19;;;10.21;27.11
16331;BME280;8275;48.206;16.340;2023-03-18T03:33:44;99213.31;;;10.19;27.07
16331;BME280;8275;48.206;16.340;2023-03-18T03:36:16;99213.56;;;10.17;27.23
16331;BME280;8275;48.206;16.340;2023-03-18T03:38:45;99218.22;;;10.17;27.28
16331;BME280;8275;48.206;16.340;2023-03-18T03:41:13;99223.13;;;10.15;27.49
16331;BME280;8275;48.206;16.340;2023-03-18T03:43:43;99231.56;;;10.13;27.52
16331;BME280;8275;48.206;16.340;2023-03-18T03:46:12;99231.00;;;10.11;27.74
16331;BME280;8275;48.206;16.340;2023-03-18T03:48:40;99228.47;;;10.10;27.69
16331;BME280;8275;48.206;16.340;2023-03-18T03:51:10;99245.97;;;10.09;27.66
16331;BME280;8275;48.206;16.340;2023-03-18T03:53:39;99248.72;;;10.09;27.47
16331;BME280;8275;48.206;16.340;2023-03-18T03:56:07;99252.78;;;10.06;27.84
16331;BME280;8275;48.206;16.340;2023-03-18T03:58:37;99260.19;;;10.06;27.55
16331;BME280;8275;48.206;16.340;2023-03-18T04:01:06;99249.47;;;10.04;27.77
16331;BME280;8275;48.206;16.340;2023-03-18T04:03:34;99238.78;;;10.03;27.63
16331;BME280;8275;48.206;16.340;2023-03-18T04:06:03;99248.06;;;10.02;27.53
16331;BME280;8275;48.206;16.340;2023-03-18T04:08:34;99240.94;;;10.01;27.63
16331;BME280;8275;48.206;16.340;2023-03-18T04:11:03;99254.63;;;10.01;27.84
16331;BME280;8275;48.206;16.340;2023-03-18T04:13:32;99247.75;;;9.98;27.97
16331;BME280;8275;48.206;16.340;2023-03-18T04:16:00;99259.78;;;9.97;27.96
16331;BME280;8275;48.206;16.340;2023-03-18T04:18:29;99254.28;;;9.97;28.17
16331;BME280;8275;48.206;16.340;2023-03-18T04:20:57;99248.03;;;9.97;28.17
16331;BME280;8275;48.206;16.340;2023-03-18T04:23:26;99257.28;;;9.96;27.87
16331;BME280;8275;48.206;16.340;2023-03-18T04:25:56;99265.78;;;9.94;27.89
16331;BME280;8275;48.206;16.340;2023-03-18T04:28:25;99261.38;;;9.93;27.88
16331;BME280;8275;48.206;16.340;2023-03-18T04:30:53;99265.19;;;9.92;27.98
16331;BME280;8275;48.206;16.340;2023-03-18T04:33:21;99268.44;;;9.89;27.92
16331;BME280;8275;48.206;16.340;2023-03-18T04:35:50;99266.75;;;9.88;28.01
16331;BME280;8275;48.206;16.340;2023-03-18T04:38:19;99261.56;;;9.86;27.92
16331;BME280;8275;48.206;16.340;2023-03-18T04:40:47;99261.81;;;9.85;28.29
16331;BME280;8275;48.206;16.340;2023-03-18T04:43:18;99260.41;;;9.82;28.45
16331;BME280;8275;48.206;16.340;2023-03-18T04:45:46;99265.31;;;9.80;28.01
16331;BME280;8275;48.206;16.340;2023-03-18T04:48:15;99265.53;;;9.79;28.27
16331;BME280;8275;48.206;16.340;2023-03-18T04:50:44;99264.97;;;9.77;28.13
16331;BME280;8275;48.206;16.340;2023-03-18T04:53:13;99267.38;;;9.73;28.46
16331;BME280;8275;48.206;16.340;2023-03-18T04:55:43;99277.97;;;9.70;28.18
16331;BME280;8275;48.206;16.340;2023-03-18T04:58:11;99268.38;;;9.67;28.46
16331;BME280;8275;48.206;16.340;2023-03-18T05:00:41;99266.16;;;9.64;28.29
16331;BME280;8275;48.206;16.340;2023-03-18T05:03:11;99264.75;;;9.62;28.64
16331;BME280;8275;48.206;16.340;2023-03-18T05:05:40;99275.13;;;9.60;28.47
16331;BME280;8275;48.206;16.340;2023-03-18T05:08:09;99284.38;;;9.59;28.66
16331;BME280;8275;48.206;16.340;2023-03-18T05:10:37;99286.81;;;9.55;28.54
16331;BME280;8275;48.206;16.340;2023-03-18T05:13:07;99279.66;;;9.54;28.31
16331;BME280;8275;48.206;16.340;2023-03-18T05:15:37;99284.28;;;9.54;28.68
16331;BME280;8275;48.206;16.340;2023-03-18T05:18:07;99291.66;;;9.53;28.78
16331;BME280;8275;48.206;16.340;2023-03-18T05:20:35;99291.66;;;9.53;28.56
16331;BME280;8275;48.206;16.340;2023-03-18T05:23:04;99292.75;;;9.52;28.83
16331;BME280;8275;48.206;16.340;2023-03-18T05:25:32;99290.84;;;9.53;28.79
16331;BME280;8275;48.206;16.340;2023-03-18T05:28:01;99293.59;;;9.53;28.98
16331;BME280;8275;48.206;16.340;2023-03-18T05:30:30;99296.06;;;9.54;28.67
16331;BME280;8275;48.206;16.340;2023-03-18T05:32:59;99296.66;;;9.56;29.06
16331;BME280;8275;48.206;16.340;2023-03-18T05:35:29;99296.38;;;9.58;28.69
16331;BME280;8275;48.206;16.340;2023-03-18T05:37:58;99303.84;;;9.62;28.88
16331;BME280;8275;48.206;16.340;2023-03-18T05:40:26;99298.72;;;9.66;28.77
16331;BME280;8275;48.206;16.340;2023-03-18T05:42:55;99304.84;;;9.73;29.05
16331;BME280;8275;48.206;16.340;2023-03-18T05:45:24;99300.25;;;9.78;28.83
16331;BME280;8275;48.206;16.340;2023-03-18T05:47:53;99308.31;;;9.85;28.87
16331;BME280;8275;48.206;16.340;2023-03-18T05:50:33;99311.72;;;9.92;28.85
16331;BME280;8275;48.206;16.340;2023-03-18T05:53:03;99305.22;;;9.98;28.62
16331;BME280;8275;48.206;16.340;2023-03-18T05:55:33;99307.53;;;10.06;29.01
16331;BME280;8275;48.206;16.340;2023-03-18T05:58:03;99307.41;;;10.13;28.69
16331;BME280;8275;48.206;16.340;2023-03-18T06:00:32;99308.03;;;10.20;28.94
16331;BME280;8275;48.206;16.340;2023-03-18T06:03:01;99306.19;;;10.25;28.93
16331;BME280;8275;48.206;16.340;2023-03-18T06:05:31;99316.72;;;10.33;28.96
16331;BME280;8275;48.206;16.340;2023-03-18T06:08:00;99319.84;;;10.42;28.80
16331;BME280;8275;48.206;16.340;2023-03-18T06:10:29;99318.81;;;10.48;28.46
16331;BME280;8275;48.206;16.340;2023-03-18T06:12:58;99320.53;;;10.54;28.61
16331;BME280;8275;48.206;16.340;2023-03-18T06:15:27;99323.31;;;10.59;28.45
16331;BME280;8275;48.206;16.340;2023-03-18T06:17:55;99323.38;;;10.64;28.22
16331;BME280;8275;48.206;16.340;2023-03-18T06:20:23;99324.56;;;10.68;28.62
16331;BME280;8275;48.206;16.340;2023-03-18T06:22:53;99330.91;;;10.74;28.50
16331;BME280;8275;48.206;16.340;2023-03-18T06:25:22;99323.81;;;10.78;28.06
16331;BME280;8275;48.206;16.340;2023-03-18T06:27:51;99326.41;;;10.84;28.25
16331;BME280;8275;48.206;16.340;2023-03-18T06:30:20;99320.72;;;10.91;28.28
16331;BME280;8275;48.206;16.340;2023-03-18T06:32:49;99320.78;;;10.96;28.40
16331;BME280;8275;48.206;16.340;2023-03-18T06:35:18;99330.13;;;11.00;28.36
16331;BME280;8275;48.206;16.340;2023-03-18T06:37:46;99332.09;;;11.04;27.97
16331;BME280;8275;48.206;16.340;2023-03-18T06:40:17;99338.97;;;11.07;28.01
16331;BME280;8275;48.206;16.340;2023-03-18T06:42:46;99332.16;;;11.09;27.90
16331;BME280;8275;48.206;16.340;2023-03-18T06:45:15;99334.63;;;11.11;28.13
16331;BME280;8275;48.206;16.340;2023-03-18T06:47:44;99333.00;;;11.15;27.93
16331;BME280;8275;48.206;16.340;2023-03-18T06:50:14;99331.66;;;11.17;27.86
16331;BME280;8275;48.206;16.340;2023-03-18T06:52:42;99340.22;;;11.21;28.07
16331;BME280;8275;48.206;16.340;2023-03-18T06:55:11;99338.06;;;11.23;27.85
16331;BME280;8275;48.206;16.340;2023-03-18T06:57:42;99344.66;;;11.27;28.22
16331;BME280;8275;48.206;16.340;2023-03-18T07:00:12;99340.88;;;11.33;28.23
16331;BME280;8275;48.206;16.340;2023-03-18T07:02:41;99339.84;;;11.39;27.78
16331;BME280;8275;48.206;16.340;2023-03-18T07:05:10;99341.53;;;11.45;27.73
16331;BME280;8275;48.206;16.340;2023-03-18T07:07:39;99333.66;;;11.54;27.87
16331;BME280;8275;48.206;16.340;2023-03-18T07:10:13;99338.69;;;11.62;27.98
16331;BME280;8275;48.206;16.340;2023-03-18T07:12:46;99344.59;;;11.75;27.72
16331;BME280;8275;48.206;16.340;2023-03-18T07:15:15;99342.50;;;11.87;27.92
16331;BME280;8275;48.206;16.340;2023-03-18T07:17:47;99333.81;;;12.01;27.87
16331;BME280;8275;48.206;16.340;2023-03-18T07:20:17;99344.31;;;12.14;27.46
16331;BME280;8275;48.206;16.340;2023-03-18T07:22:48;99342.19;;;12.26;27.63
16331;BME280;8275;48.206;16.340;2023-03-18T07:25:17;99339.81;;;12.39;27.41
16331;BME280;8275;48.206;16.340;2023-03-18T07:27:50;99337.72;;;12.56;27.35
16331;BME280;8275;48.206;16.340;2023-03-18T07:30:19;99340.50;;;12.72;27.47
16331;BME280;8275;48.206;16.340;2023-03-18T07:32:49;99344.16;;;12.87;27.17
16331;BME280;8275;48.206;16.340;2023-03-18T07:35:17;99353.03;;;13.04;27.30
16331;BME280;8275;48.206;16.340;2023-03-18T07:37:47;99352.81;;;13.21;27.19
16331;BME280;8275;48.206;16.340;2023-03-18T07:40:16;99349.84;;;13.32;26.87
16331;BME280;8275;48.206;16.340;2023-03-18T07:42:45;99361.13;;;13.46;26.82
16331;BME280;8275;48.206;16.340;2023-03-18T07:45:15;99343.81;;;13.56;26.57
16331;BME280;8275;48.206;16.340;2023-03-18T07:47:44;99356.50;;;13.72;26.58
16331;BME280;8275;48.206;16.340;2023-03-18T07:50:14;99344.91;;;13.85;26.35
16331;BME280;8275;48.206;16.340;2023-03-18T07:52:43;99348.47;;;13.95;26.28
16331;BME280;8275;48.206;16.340;2023-03-18T07:55:12;99352.63;;;14.03;26.26
16331;BME280;8275;48.206;16.340;2023-03-18T07:57:41;99356.47;;;14.12;26.15
16331;BME280;8275;48.206;16.340;2023-03-18T08:00:12;99363.06;;;14.21;26.09
16331;BME280;8275;48.206;16.340;2023-03-18T08:02:42;99356.19;;;14.34;26.02
16331;BME280;8275;48.206;16.340;2023-03-18T08:05:11;99355.06;;;14.50;25.91
16331;BME280;8275;48.206;16.340;2023-03-18T08:07:41;99348.63;;;14.69;25.76
16331;BME280;8275;48.206;16.340;2023-03-18T08:10:10;99353.53;;;14.88;25.60
16331;BME280;8275;48.206;16.340;2023-03-18T08:12:41;99352.66;;;15.02;25.51
16331;BME280;8275;48.206;16.340;2023-03-18T08:15:20;99353.69;;;15.16;25.49
16331;BME280;8275;48.206;16.340;2023-03-18T08:17:50;99350.84;;;15.26;25.34
16331;BME280;8275;48.206;16.340;2023-03-18T08:20:20;99353.31;;;15.33;25.28
16331;BME280;8275;48.206;16.340;2023-03-18T08:22:49;99353.84;;;15.40;25.10
16331;BME280;8275;48.206;16.340;2023-03-18T08:25:18;99350.25;;;15.44;25.11
16331;BME280;8275;48.206;16.340;2023-03-18T08:27:48;99363.97;;;15.55;24.86
16331;BME280;8275;48.206;16.340;2023-03-18T08:30:17;99354.78;;;15.64;24.97
16331;BME280;8275;48.206;16.340;2023-03-18T08:32:45;99364.09;;;15.73;24.52
16331;BME280;8275;48.206;16.340;2023-03-18T08:35:15;99361.31;;;15.78;24.61
16331;BME280;8275;48.206;16.340;2023-03-18T08:37:46;99367.34;;;15.85;24.60
16331;BME280;8275;48.206;16.340;2023-03-18T08:40:17;99364.00;;;15.88;24.47
16331;BME280;8275;48.206;16.340;2023-03-18T08:42:47;99368.41;;;15.89;24.35
16331;BME280;8275;48.206;16.340;2023-03-18T08:45:15;99371.72;;;15.86;24.40
16331;BME280;8275;48.206;16.340;2023-03-18T08:47:44;99372.56;;;15.87;24.08
16331;BME280;8275;48.206;16.340;2023-03-18T08:50:12;99362.91;;;15.84;24.22
16331;BME280;8275;48.206;16.340;2023-03-18T08:52:42;99364.31;;;15.82;24.07
16331;BME280;8275;48.206;16.340;2023-03-18T08:55:11;99361.28;;;15.83;24.31
16331;BME280;8275;48.206;16.340;2023-03-18T08:57:40;99372.03;;;15.85;24.26
16331;BME280;8275;48.206;16.340;2023-03-18T09:00:10;99369.53;;;15.88;24.26
16331;BME280;8275;48.206;16.340;2023-03-18T09:02:39;99368.69;;;15.88;24.14
16331;BME280;8275;48.206;16.340;2023-03-18T09:05:08;99358.00;;;15.81;24.17
16331;BME280;8275;48.206;16.340;2023-03-18T09:07:38;99358.84;;;15.77;23.98
16331;BME280;8275;48.206;16.340;2023-03-18T09:10:10;99361.66;;;15.72;23.94
16331;BME280;8275;48.206;16.340;2023-03-18T09:12:40;99358.34;;;15.70;24.02
16331;BME280;8275;48.206;16.340;2023-03-18T09:15:11;99356.16;;;15.67;24.17
16331;BME280;8275;48.206;16.340;2023-03-18T09:17:41;99351.69;;;15.71;24.08
16331;BME280;8275;48.206;16.340;2023-03-18T09:20:30;99356.09;;;15.77;23.87
16331;BME280;8275;48.206;16.340;2023-03-18T09:23:00;99353.81;;;15.84;24.30
16331;BME280;8275;48.206;16.340;2023-03-18T09:25:30;99361.78;;;15.90;23.85
16331;BME280;8275;48.206;16.340;2023-03-18T09:27:59;99352.88;;;15.93;23.83
16331;BME280;8275;48.206;16.340;2023-03-18T09:30:28;99363.38;;;15.96;23.95
16331;BME280;8275;48.206;16.340;2023-03-18T09:32:56;99360.28;;;16.03;23.92
16331;BME280;8275;48.206;16.340;2023-03-18T09:35:25;99355.25;;;16.10;23.86
16331;BME280;8275;48.206;16.340;2023-03-18T09:37:55;99364.28;;;16.21;23.70
16331;BME280;8275;48.206;16.340;2023-03-18T09:40:27;99362.00;;;16.28;23.64
16331;BME280;8275;48.206;16.340;2023-03-18T09:43:17;99365.00;;;16.31;23.65
16331;BME280;8275;48.206;16.340;2023-03-18T09:45:58;99356.88;;;16.40;23.74
16331;BME280;8275;48.206;16.340;2023-03-18T09:48:55;99355.13;;;16.49;23.81
16331;BME280;8275;48.206;16.340;2023-03-18T09:51:39;99355.06;;;16.59;23.46
16331;BME280;8275;48.206;16.340;2023-03-18T09:54:17;99351.41;;;16.63;23.45
16331;BME280;8275;48.206;16.340;2023-03-18T09:56:51;99344.16;;;16.67;23.29
16331;BME280;8275;48.206;16.340;2023-03-18T09:59:23;99353.53;;;16.71;23.44
16331;BME280;8275;48.206;16.340;2023-03-18T10:01:55;99335.75;;;16.77;23.34
16331;BME280;8275;48.206;16.340;2023-03-18T10:04:27;99348.41;;;16.83;23.08
16331;BME280;8275;48.206;16.340;2023-03-18T10:07:04;99340.63;;;16.85;23.03
16331;BME280;8275;48.206;16.340;2023-03-18T10:09:38;99340.56;;;16.91;22.84
16331;BME280;8275;48.206;16.340;2023-03-18T10:12:15;99338.25;;;16.98;22.83
16331;BME280;8275;48.206;16.340;2023-03-18T10:14:57;99346.44;;;17.08;22.89
16331;BME280;8275;48.206;16.340;2023-03-18T10:17:33;99339.97;;;17.17;22.78
16331;BME280;8275;48.206;16.340;2023-03-18T10:20:16;99330.50;;;17.18;22.73
16331;BME280;8275;48.206;16.340;2023-03-18T10:23:01;99342.56;;;17.27;22.50
16331;BME280;8275;48.206;16.340;2023-03-18T10:25:36;99334.19;;;17.32;22.56
16331;BME280;8275;48.206;16.340;2023-03-18T10:28:30;99337.41;;;17.39;22.41
16331;BME280;8275;48.206;16.340;2023-03-18T10:31:12;99333.75;;;17.44;22.52
16331;BME280;8275;48.206;16.340;2023-03-18T10:33:49;99339.22;;;17.49;22.54
16331;BME280;8275;48.206;16.340;2023-03-18T10:36:28;99330.59;;;17.50;22.35
16331;BME280;8275;48.206;16.340;2023-03-18T10:38:59;99328.69;;;17.51;22.44
16331;BME280;8275;48.206;16.340;2023-03-18T10:41:31;99328.38;;;17.52;22.26
16331;BME280;8275;48.206;16.340;2023-03-18T10:44:05;99325.22;;;17.59;22.32
16331;BME280;8275;48.206;16.340;2023-03-18T10:46:43;99329.31;;;17.80;22.38
16331;BME280;8275;48.206;16.340;2023-03-18T10:49:17;99331.91;;;18.09;22.12
16331;BME280;8275;48.206;16.340;2023-03-18T10:51:52;99319.56;;;18.47;22.20
16331;BME280;8275;48.206;16.340;2023-03-18T10:54:26;99315.34;;;18.90;22.04
16331;BME280;8275;48.206;16.340;2023-03-18T10:56:57;99310.56;;;19.32;21.79
16331;BME280;8275;48.206;16.340;2023-03-18T10:59:27;99315.09;;;19.77;21.35
16331;BME280;8275;48.206;16.340;2023-03-18T11:02:02;99312.09;;;20.18;21.14
16331;BME280;8275;48.206;16.340;2023-03-18T11:04:40;99304.16;;;20.56;21.09
16331;BME280;8275;48.206;16.340;2023-03-18T11:07:17;99304.91;;;20.95;20.86
16331;BME280;8275;48.206;16.340;2023-03-18T11:09:46;99305.00;;;21.30;20.35
16331;BME280;8275;48.206;16.340;2023-03-18T11:12:17;99300.13;;;21.61;20.32
16331;BME280;8275;48.206;16.340;2023-03-18T11:14:47;99302.09;;;21.95;19.68
16331;BME280;8275;48.206;16.340;2023-03-18T11:17:23;99292.22;;;22.23;19.88
16331;BME280;8275;48.206;16.340;2023-03-18T11:20:04;99292.44;;;22.47;19.36
16331;BME280;8275;48.206;16.340;2023-03-18T11:22:36;99288.50;;;22.65;19.33
16331;BME280;8275;48.206;16.340;2023-03-18T11:25:13;99282.63;;;22.87;19.25
16331;BME280;8275;48.206;16.340;2023-03-18T11:27:45;99278.03;;;23.12;18.57
16331;BME280;8275;48.206;16.340;2023-03-18T11:30:19;99269.84;;;23.36;18.44
16331;BME280;8275;48.206;16.340;2023-03-18T11:33:11;99265.88;;;23.58;18.44
16331;BME280;8275;48.206;16.340;2023-03-18T11:35:45;99268.19;;;23.77;18.07
16331;BME280;8275;48.206;16.340;2023-03-18T11:38:17;99271.91;;;24.01;17.94
16331;BME280;8275;48.206;16.340;2023-03-18T11:40:46;99260.09;;;24.28;17.82
16331;BME280;8275;48.206;16.340;2023-03-18T11:43:22;99257.94;;;24.58;17.83
16331;BME280;8275;48.206;16.340;2023-03-18T11:45:56;99255.28;;;24.86;17.61
16331;BME280;8275;48.206;16.340;2023-03-18T11:48:34;99253.88;;;25.16;17.19
16331;BME280;8275;48.206;16.340;2023-03-18T11:51:24;99241.75;;;25.52;17.08
16331;BME280;8275;48.206;16.340;2023-03-18T11:57:06;99224.75;;;26.16;16.66
16331;BME280;8275;48.206;16.340;2023-03-18T12:00:09;99226.13;;;26.53;16.42
16331;BME280;8275;48.206;16.340;2023-03-18T12:03:27;99218.25;;;26.90;16.59
16331;BME280;8275;48.206;16.340;2023-03-18T12:06:15;99213.22;;;27.34;16.07
16331;BME280;8275;48.206;16.340;2023-03-18T12:09:00;99212.53;;;27.75;15.58
16331;BME280;8275;48.206;16.340;2023-03-18T12:12:04;99199.09;;;28.07;15.47
16331;BME280;8275;48.206;16.340;2023-03-18T12:14:41;99198.38;;;28.32;14.55
16331;BME280;8275;48.206;16.340;2023-03-18T12:17:26;99192.72;;;28.55;14.88
16331;BME280;8275;48.206;16.340;2023-03-18T12:20:45;99196.84;;;28.84;14.91
16331;BME280;8275;48.206;16.340;2023-03-18T12:23:50;99188.59;;;29.24;14.46
16331;BME280;8275;48.206;16.340;2023-03-18T12:26:26;99176.63;;;29.64;14.26
16331;BME280;8275;48.206;16.340;2023-03-18T12:29:24;99177.88;;;30.00;14.14
16331;BME280;8275;48.206;16.340;2023-03-18T12:32:06;99167.81;;;30.39;13.81
16331;BME280;8275;48.206;16.340;2023-03-18T12:35:13;99168.88;;;30.75;13.60
16331;BME280;8275;48.206;16.340;2023-03-18T12:38:05;99161.09;;;31.15;13.30
16331;BME280;8275;48.206;16.340;2023-03-18T12:40:55;99166.13;;;31.43;13.05
16331;BME280;8275;48.206;16.340;2023-03-18T12:43:52;99158.91;;;31.60;12.91
16331;BME280;8275;48.206;16.340;2023-03-18T12:46:28;99163.84;;;31.77;12.71
16331;BME280;8275;48.206;16.340;2023-03-18T12:49:04;99167.09;;;31.89;12.59
16331;BME280;8275;48.206;16.340;2023-03-18T12:51:43;99165.53;;;32.03;12.37
16331;BME280;8275;48.206;16.340;2023-03-18T12:54:20;99161.91;;;32.13;11.77
16331;BME280;8275;48.206;16.340;2023-03-18T12:56:58;99162.75;;;32.34;12.02
16331;BME280;8275;48.206;16.340;2023-03-18T12:59:34;99158.31;;;32.51;11.89
16331;BME280;8275;48.206;16.340;2023-03-18T13:02:37;99166.03;;;32.65;11.97
16331;BME280;8275;48.206;16.340;2023-03-18T13:05:28;99158.72;;;32.74;11.74
16331;BME280;8275;48.206;16.340;2023-03-18T13:08:24;99166.84;;;33.04;11.13
16331;BME280;8275;48.206;16.340;2023-03-18T13:11:03;99154.56;;;33.35;10.88
16331;BME280;8275;48.206;16.340;2023-03-18T13:13:35;99154.88;;;33.65;11.11
16331;BME280;8275;48.206;16.340;2023-03-18T13:16:07;99150.75;;;33.77;10.98
16331;BME280;8275;48.206;16.340;2023-03-18T13:18:40;99148.72;;;33.74;10.77
16331;BME280;8275;48.206;16.340;2023-03-18T13:21:13;99149.09;;;33.83;10.14
16331;BME280;8275;48.206;16.340;2023-03-18T13:24:09;99153.50;;;33.94;10.77
16331;BME280;8275;48.206;16.340;2023-03-18T13:27:14;99147.84;;;33.91;10.46
16331;BME280;8275;48.206;16.340;2023-03-18T13:29:53;99154.31;;;33.95;10.63
16331;BME280;8275;48.206;16.340;2023-03-18T13:32:43;99145.38;;;33.89;10.49
16331;BME280;8275;48.206;16.340;2023-03-18T13:35:58;99145.28;;;34.11;10.07
16331;BME280;8275;48.206;16.340;2023-03-18T13:42:23;99144.91;;;34.09;10.38